sensor_id;sensor_type;location;lat;lon;timestamp;pressure;altitude;pressure_sealevel;temperature;humidity
69911;BME280;63555;49.920;17.868;2022-10-16T00:01:17;98934.06;;;13.81;100.00
69911;BME280;63555;49.920;17.868;2022-10-16T00:03:44;98939.69;;;13.85;100.00
69911;BME280;63555;49.920;17.868;2022-10-16T00:06:10;98938.41;;;13.87;100.00
69911;BME280;63555;49.920;17.868;2022-10-16T00:08:36;98946.13;;;13.89;100.00
69911;BME280;63555;49.920;17.868;2022-10-16T00:11:04;98950.13;;;13.91;100.00
69911;BME280;63555;49.920;17.868;2022-10-16T00:13:31;98943.00;;;13.92;100.00
69911;BME280;63555;49.920;17.868;2022-10-16T00:15:57;98939.09;;;13.94;100.00
69911;BME280;63555;49.920;17.868;2022-10-16T00:18:24;98934.38;;;13.96;100.00
69911;BME280;63555;49.920;17.868;2022-10-16T00:20:50;98934.16;;;13.98;100.00
69911;BME280;63555;49.920;17.868;2022-10-16T00:23:15;98935.75;;;13.99;100.00
69911;BME280;63555;49.920;17.868;2022-10-16T00:25:41;98934.72;;;14.00;100.00
69911;BME280;63555;49.920;17.868;2022-10-16T00:28:06;98932.63;;;14.02;100.00
69911;BME280;63555;49.920;17.868;2022-10-16T00:30:32;98922.88;;;14.02;100.00
69911;BME280;63555;49.920;17.868;2022-10-16T00:32:57;98924.22;;;14.05;100.00
69911;BME280;63555;49.920;17.868;2022-10-16T00:35:22;98925.84;;;14.06;100.00
69911;BME280;63555;49.920;17.868;2022-10-16T00:37:48;98928.47;;;14.06;100.00
69911;BME280;63555;49.920;17.868;2022-10-16T00:40:14;98929.28;;;14.06;100.00
69911;BME280;63555;49.920;17.868;2022-10-16T00:42:39;98931.94;;;14.06;100.00
69911;BME280;63555;49.920;17.868;2022-10-16T00:45:05;98935.38;;;14.07;100.00
69911;BME280;63555;49.920;17.868;2022-10-16T00:47:34;98941.47;;;14.07;100.00
69911;BME280;63555;49.920;17.868;2022-10-16T00:50:13;98932.75;;;14.07;100.00
69911;BME280;63555;49.920;17.868;2022-10-16T00:52:44;98934.59;;;14.06;100.00
69911;BME280;63555;49.920;17.868;2022-10-16T00:55:11;98936.41;;;14.06;100.00
69911;BME280;63555;49.920;17.868;2022-10-16T00:57:37;98933.53;;;14.07;100.00
69911;BME280;63555;49.920;17.868;2022-10-16T01:00:04;98925.03;;;14.05;100.00
69911;BME280;63555;49.920;17.868;2022-10-16T01:02:30;98928.47;;;14.06;100.00
69911;BME280;63555;49.920;17.868;2022-10-16T01:04:56;98930.91;;;14.07;100.00
69911;BME280;63555;49.920;17.868;2022-10-16T01:10:27;98924.22;;;14.05;100.00
69911;BME280;63555;49.920;17.868;2022-10-16T01:13:07;98919.75;;;14.05;100.00
69911;BME280;63555;49.920;17.868;2022-10-16T01:20:42;98918.94;;;14.05;100.00
69911;BME280;63555;49.920;17.868;2022-10-16T01:23:27;98913.66;;;14.05;100.00
69911;BME280;63555;49.920;17.868;2022-10-16T01:28:55;98923.91;;;14.01;100.00
69911;BME280;63555;49.920;17.868;2022-10-16T01:31:25;98931.50;;;13.98;100.00
69911;BME280;63555;49.920;17.868;2022-10-16T01:34:00;98940.47;;;13.97;100.00
69911;BME280;63555;49.920;17.868;2022-10-16T01:36:33;98931.16;;;13.94;100.00
69911;BME280;63555;49.920;17.868;2022-10-16T01:39:01;98940.94;;;13.94;100.00
69911;BME280;63555;49.920;17.868;2022-10-16T01:41:34;98942.78;;;13.93;100.00
69911;BME280;63555;49.920;17.868;2022-10-16T01:44:09;98947.50;;;13.91;100.00
69911;BME280;63555;49.920;17.868;2022-10-16T01:46:39;98944.75;;;13.86;100.00
69911;BME280;63555;49.920;17.868;2022-10-16T01:49:07;98947.84;;;13.83;100.00
69911;BME280;63555;49.920;17.868;2022-10-16T01:51:35;98952.09;;;13.84;100.00
69911;BME280;63555;49.920;17.868;2022-10-16T01:54:04;98947.63;;;13.85;100.00
69911;BME280;63555;49.920;17.868;2022-10-16T01:56:33;98952.09;;;13.84;100.00
69911;BME280;63555;49.920;17.868;2022-10-16T01:59:07;98955.56;;;13.85;100.00
69911;BME280;63555;49.920;17.868;2022-10-16T02:01:36;98959.00;;;13.85;100.00
69911;BME280;63555;49.920;17.868;2022-10-16T02:04:30;98961.66;;;13.85;100.00
69911;BME280;63555;49.920;17.868;2022-10-16T02:06:53;98957.06;;;13.80;100.00
69911;BME280;63555;49.920;17.868;2022-10-16T02:09:19;98954.78;;;13.72;100.00
69911;BME280;63555;49.920;17.868;2022-10-16T02:11:44;98960.63;;;13.63;100.00
69911;BME280;63555;49.920;17.868;2022-10-16T02:14:10;98953.28;;;13.53;100.00
69911;BME280;63555;49.920;17.868;2022-10-16T02:16:44;98950.44;;;13.43;100.00
69911;BME280;63555;49.920;17.868;2022-10-16T02:19:11;98954.72;;;13.32;100.00
69911;BME280;63555;49.920;17.868;2022-10-16T02:22:03;98952.88;;;13.21;100.00
69911;BME280;63555;49.920;17.868;2022-10-16T02:27:06;98947.19;;;13.06;100.00
69911;BME280;63555;49.920;17.868;2022-10-16T02:29:42;98947.53;;;12.98;100.00
69911;BME280;63555;49.920;17.868;2022-10-16T02:32:12;98945.22;;;12.90;100.00
69911;BME280;63555;49.920;17.868;2022-10-16T02:34:39;98941.88;;;12.82;100.00
69911;BME280;63555;49.920;17.868;2022-10-16T02:37:05;98947.59;;;12.79;100.00
69911;BME280;63555;49.920;17.868;2022-10-16T02:39:32;98949.88;;;12.76;100.00
69911;BME280;63555;49.920;17.868;2022-10-16T02:41:58;98955.03;;;12.71;100.00
69911;BME280;63555;49.920;17.868;2022-10-16T02:44:23;98954.91;;;12.66;100.00
69911;BME280;63555;49.920;17.868;2022-10-16T02:46:49;98954.81;;;12.61;100.00
69911;BME280;63555;49.920;17.868;2022-10-16T02:49:14;98956.50;;;12.55;100.00
69911;BME280;63555;49.920;17.868;2022-10-16T02:51:40;98955.13;;;12.53;100.00
69911;BME280;63555;49.920;17.868;2022-10-16T02:54:05;98955.22;;;12.46;100.00
69911;BME280;63555;49.920;17.868;2022-10-16T02:56:31;98959.34;;;12.42;100.00
69911;BME280;63555;49.920;17.868;2022-10-16T02:58:56;98950.69;;;12.35;100.00
69911;BME280;63555;49.920;17.868;2022-10-16T03:01:22;98940.81;;;12.30;100.00
69911;BME280;63555;49.920;17.868;2022-10-16T03:03:48;98941.25;;;12.27;100.00
69911;BME280;63555;49.920;17.868;2022-10-16T03:06:14;98943.53;;;12.24;100.00
69911;BME280;63555;49.920;17.868;2022-10-16T03:08:39;98942.59;;;12.18;100.00
69911;BME280;63555;49.920;17.868;2022-10-16T03:11:05;98949.34;;;12.14;100.00
69911;BME280;63555;49.920;17.868;2022-10-16T03:13:30;98952.44;;;12.11;100.00
69911;BME280;63555;49.920;17.868;2022-10-16T03:15:55;98963.19;;;12.09;100.00
69911;BME280;63555;49.920;17.868;2022-10-16T03:18:21;98962.59;;;12.07;100.00
69911;BME280;63555;49.920;17.868;2022-10-16T03:20:46;98964.06;;;12.03;100.00
69911;BME280;63555;49.920;17.868;2022-10-16T03:23:12;98964.75;;;11.99;100.00
69911;BME280;63555;49.920;17.868;2022-10-16T03:25:37;98961.50;;;11.97;100.00
69911;BME280;63555;49.920;17.868;2022-10-16T03:28:03;98949.81;;;11.93;100.00
69911;BME280;63555;49.920;17.868;2022-10-16T03:30:28;98947.59;;;11.90;100.00
69911;BME280;63555;49.920;17.868;2022-10-16T03:32:53;98941.19;;;11.86;100.00
69911;BME280;63555;49.920;17.868;2022-10-16T03:35:23;98949.09;;;11.86;100.00
69911;BME280;63555;49.920;17.868;2022-10-16T03:37:49;98955.97;;;11.87;100.00
69911;BME280;63555;49.920;17.868;2022-10-16T03:40:15;98961.59;;;11.90;100.00
69911;BME280;63555;49.920;17.868;2022-10-16T03:42:42;98963.19;;;11.91;100.00
69911;BME280;63555;49.920;17.868;2022-10-16T03:45:09;98972.72;;;11.92;100.00
69911;BME280;63555;49.920;17.868;2022-10-16T03:47:34;98966.63;;;11.92;100.00
69911;BME280;63555;49.920;17.868;2022-10-16T03:50:00;98963.56;;;11.95;100.00
69911;BME280;63555;49.920;17.868;2022-10-16T03:52:26;98967.38;;;11.99;100.00
69911;BME280;63555;49.920;17.868;2022-10-16T03:54:51;98965.31;;;12.01;100.00
69911;BME280;63555;49.920;17.868;2022-10-16T03:57:17;98968.53;;;12.03;100.00
69911;BME280;63555;49.920;17.868;2022-10-16T03:59:42;98977.25;;;12.03;100.00
69911;BME280;63555;49.920;17.868;2022-10-16T04:02:07;98986.78;;;12.04;100.00
69911;BME280;63555;49.920;17.868;2022-10-16T04:04:33;98990.00;;;12.06;100.00
69911;BME280;63555;49.920;17.868;2022-10-16T04:06:58;98983.91;;;12.06;100.00
69911;BME280;63555;49.920;17.868;2022-10-16T04:09:23;98976.59;;;12.08;100.00
69911;BME280;63555;49.920;17.868;2022-10-16T04:11:49;98979.38;;;12.13;100.00
69911;BME280;63555;49.920;17.868;2022-10-16T04:14:14;98986.41;;;12.19;100.00
69911;BME280;63555;49.920;17.868;2022-10-16T04:16:40;98985.88;;;12.29;100.00
69911;BME280;63555;49.920;17.868;2022-10-16T04:19:05;98979.72;;;12.35;100.00
69911;BME280;63555;49.920;17.868;2022-10-16T04:21:30;98988.47;;;12.47;100.00
69911;BME280;63555;49.920;17.868;2022-10-16T04:23:56;98983.47;;;12.57;100.00
69911;BME280;63555;49.920;17.868;2022-10-16T04:26:21;98990.25;;;12.65;100.00
69911;BME280;63555;49.920;17.868;2022-10-16T04:28:46;98991.41;;;12.69;100.00
69911;BME280;63555;49.920;17.868;2022-10-16T04:31:12;98993.16;;;12.75;100.00
69911;BME280;63555;49.920;17.868;2022-10-16T04:33:37;98994.09;;;12.80;100.00
69911;BME280;63555;49.920;17.868;2022-10-16T04:36:03;98994.00;;;12.87;100.00
69911;BME280;63555;49.920;17.868;2022-10-16T04:38:28;98990.09;;;12.90;100.00
69911;BME280;63555;49.920;17.868;2022-10-16T04:40:54;98992.84;;;12.95;100.00
69911;BME280;63555;49.920;17.868;2022-10-16T04:43:20;98992.75;;;13.01;100.00
69911;BME280;63555;49.920;17.868;2022-10-16T04:45:46;98993.69;;;13.07;100.00
69911;BME280;63555;49.920;17.868;2022-10-16T04:48:11;99001.75;;;13.12;100.00
69911;BME280;63555;49.920;17.868;2022-10-16T04:50:37;99012.66;;;13.15;100.00
69911;BME280;63555;49.920;17.868;2022-10-16T04:53:02;99002.47;;;13.19;100.00
69911;BME280;63555;49.920;17.868;2022-10-16T04:55:27;99003.03;;;13.21;100.00
69911;BME280;63555;49.920;17.868;2022-10-16T04:57:53;98994.44;;;13.26;100.00
69911;BME280;63555;49.920;17.868;2022-10-16T05:00:19;99008.22;;;13.28;100.00
69911;BME280;63555;49.920;17.868;2022-10-16T05:02:44;99009.03;;;13.28;100.00
69911;BME280;63555;49.920;17.868;2022-10-16T05:05:10;99008.56;;;13.31;100.00
69911;BME280;63555;49.920;17.868;2022-10-16T05:07:35;99012.81;;;13.32;100.00
69911;BME280;63555;49.920;17.868;2022-10-16T05:10:01;99020.28;;;13.35;100.00
69911;BME280;63555;49.920;17.868;2022-10-16T05:12:26;99008.69;;;13.36;100.00
69911;BME280;63555;49.920;17.868;2022-10-16T05:14:51;99017.97;;;13.39;100.00
69911;BME280;63555;49.920;17.868;2022-10-16T05:17:17;99010.97;;;13.44;100.00
69911;BME280;63555;49.920;17.868;2022-10-16T05:19:42;99015.34;;;13.51;100.00
69911;BME280;63555;49.920;17.868;2022-10-16T05:22:08;99028.44;;;13.57;100.00
69911;BME280;63555;49.920;17.868;2022-10-16T05:24:33;99025.91;;;13.62;100.00
69911;BME280;63555;49.920;17.868;2022-10-16T05:26:59;99016.50;;;13.66;100.00
69911;BME280;63555;49.920;17.868;2022-10-16T05:29:24;99029.25;;;13.69;100.00
69911;BME280;63555;49.920;17.868;2022-10-16T05:31:51;99022.69;;;13.72;100.00
69911;BME280;63555;49.920;17.868;2022-10-16T05:34:17;99028.31;;;13.75;100.00
69911;BME280;63555;49.920;17.868;2022-10-16T05:36:43;99028.66;;;13.79;100.00
69911;BME280;63555;49.920;17.868;2022-10-16T05:39:10;99035.91;;;13.84;100.00
69911;BME280;63555;49.920;17.868;2022-10-16T05:41:36;99041.53;;;13.87;100.00
69911;BME280;63555;49.920;17.868;2022-10-16T05:44:05;99032.13;;;13.91;100.00
69911;BME280;63555;49.920;17.868;2022-10-16T05:46:31;99032.22;;;13.96;100.00
69911;BME280;63555;49.920;17.868;2022-10-16T05:48:56;99031.88;;;14.04;100.00
69911;BME280;63555;49.920;17.868;2022-10-16T05:51:22;99025.16;;;14.13;100.00
69911;BME280;63555;49.920;17.868;2022-10-16T05:53:47;99027.19;;;14.23;100.00
69911;BME280;63555;49.920;17.868;2022-10-16T05:56:13;99034.53;;;14.33;100.00
69911;BME280;63555;49.920;17.868;2022-10-16T05:58:38;99028.31;;;14.39;100.00
69911;BME280;63555;49.920;17.868;2022-10-16T06:01:31;99042.25;;;14.46;100.00
69911;BME280;63555;49.920;17.868;2022-10-16T06:03:57;99044.19;;;14.51;100.00
69911;BME280;63555;49.920;17.868;2022-10-16T06:06:25;99048.53;;;14.57;100.00
69911;BME280;63555;49.920;17.868;2022-10-16T06:08:51;99064.84;;;14.65;100.00
69911;BME280;63555;49.920;17.868;2022-10-16T06:11:23;99071.63;;;14.73;100.00
69911;BME280;63555;49.920;17.868;2022-10-16T06:13:50;99076.22;;;14.77;100.00
69911;BME280;63555;49.920;17.868;2022-10-16T06:16:16;99076.31;;;14.83;100.00
69911;BME280;63555;49.920;17.868;2022-10-16T06:18:41;99077.41;;;14.87;100.00
69911;BME280;63555;49.920;17.868;2022-10-16T06:21:19;99067.97;;;14.91;100.00
69911;BME280;63555;49.920;17.868;2022-10-16T06:23:45;99080.00;;;14.98;100.00
69911;BME280;63555;49.920;17.868;2022-10-16T06:26:16;99079.63;;;15.06;100.00
69911;BME280;63555;49.920;17.868;2022-10-16T06:28:41;99084.88;;;15.18;100.00
69911;BME280;63555;49.920;17.868;2022-10-16T06:31:08;99089.41;;;15.34;100.00
69911;BME280;63555;49.920;17.868;2022-10-16T06:33:35;99094.38;;;15.48;100.00
69911;BME280;63555;49.920;17.868;2022-10-16T06:36:12;99095.44;;;15.63;100.00
69911;BME280;63555;49.920;17.868;2022-10-16T06:38:39;99099.69;;;15.81;100.00
69911;BME280;63555;49.920;17.868;2022-10-16T06:41:06;99088.50;;;15.96;100.00
69911;BME280;63555;49.920;17.868;2022-10-16T06:43:32;99095.31;;;16.08;100.00
69911;BME280;63555;49.920;17.868;2022-10-16T06:46:00;99084.59;;;16.20;100.00
69911;BME280;63555;49.920;17.868;2022-10-16T06:48:27;99090.09;;;16.35;100.00
69911;BME280;63555;49.920;17.868;2022-10-16T06:53:23;99065.78;;;16.65;100.00
69911;BME280;63555;49.920;17.868;2022-10-16T06:55:49;99072.50;;;16.73;100.00
69911;BME280;63555;49.920;17.868;2022-10-16T06:58:14;99066.44;;;16.78;100.00
69911;BME280;63555;49.920;17.868;2022-10-16T07:00:40;99064.66;;;16.83;100.00
69911;BME280;63555;49.920;17.868;2022-10-16T07:03:05;99069.72;;;16.85;100.00
69911;BME280;63555;49.920;17.868;2022-10-16T07:05:30;99074.44;;;16.78;100.00
69911;BME280;63555;49.920;17.868;2022-10-16T07:07:56;99078.31;;;16.70;100.00
69911;BME280;63555;49.920;17.868;2022-10-16T07:10:21;99085.91;;;16.61;100.00
69911;BME280;63555;49.920;17.868;2022-10-16T07:12:49;99089.53;;;16.55;100.00
69911;BME280;63555;49.920;17.868;2022-10-16T07:15:15;99091.56;;;16.48;100.00
69911;BME280;63555;49.920;17.868;2022-10-16T07:17:40;99106.88;;;16.41;100.00
69911;BME280;63555;49.920;17.868;2022-10-16T07:20:06;99111.63;;;16.39;100.00
69911;BME280;63555;49.920;17.868;2022-10-16T07:22:32;99110.00;;;16.33;100.00
69911;BME280;63555;49.920;17.868;2022-10-16T07:24:58;99122.47;;;16.32;100.00
69911;BME280;63555;49.920;17.868;2022-10-16T07:27:24;99132.03;;;16.33;100.00
69911;BME280;63555;49.920;17.868;2022-10-16T07:29:49;99130.44;;;16.32;100.00
69911;BME280;63555;49.920;17.868;2022-10-16T07:32:15;99134.56;;;16.45;100.00
69911;BME280;63555;49.920;17.868;2022-10-16T07:34:40;99132.69;;;17.11;100.00
69911;BME280;63555;49.920;17.868;2022-10-16T07:37:07;99134.25;;;18.40;100.00
69911;BME280;63555;49.920;17.868;2022-10-16T07:39:32;99124.16;;;19.50;100.00
69911;BME280;63555;49.920;17.868;2022-10-16T07:41:58;99120.56;;;20.61;100.00
69911;BME280;63555;49.920;17.868;2022-10-16T07:44:23;99113.53;;;21.59;100.00
69911;BME280;63555;49.920;17.868;2022-10-16T07:46:48;99110.00;;;22.26;100.00
69911;BME280;63555;49.920;17.868;2022-10-16T07:49:14;99103.31;;;22.90;100.00
69911;BME280;63555;49.920;17.868;2022-10-16T07:51:39;99095.28;;;23.61;96.56
69911;BME280;63555;49.920;17.868;2022-10-16T07:54:05;99098.13;;;23.97;93.60
69911;BME280;63555;49.920;17.868;2022-10-16T07:56:31;99106.38;;;24.46;91.38
69911;BME280;63555;49.920;17.868;2022-10-16T07:58:57;99098.56;;;25.22;87.18
69911;BME280;63555;49.920;17.868;2022-10-16T08:01:23;99088.13;;;25.74;84.28
69911;BME280;63555;49.920;17.868;2022-10-16T08:03:50;99093.75;;;26.26;80.86
69911;BME280;63555;49.920;17.868;2022-10-16T08:06:16;99105.13;;;26.45;78.46
69911;BME280;63555;49.920;17.868;2022-10-16T08:08:42;99109.72;;;26.44;76.75
69911;BME280;63555;49.920;17.868;2022-10-16T08:11:08;99113.00;;;26.02;75.87
69911;BME280;63555;49.920;17.868;2022-10-16T08:13:34;99116.97;;;26.04;75.75
69911;BME280;63555;49.920;17.868;2022-10-16T08:16:00;99120.34;;;25.79;74.66
69911;BME280;63555;49.920;17.868;2022-10-16T08:18:25;99119.59;;;25.87;74.08
69911;BME280;63555;49.920;17.868;2022-10-16T08:20:59;99115.72;;;25.57;73.54
69911;BME280;63555;49.920;17.868;2022-10-16T08:23:26;99117.88;;;25.46;74.43
69911;BME280;63555;49.920;17.868;2022-10-16T08:25:55;99111.56;;;25.96;72.72
69911;BME280;63555;49.920;17.868;2022-10-16T08:28:21;99117.69;;;25.88;71.20
69911;BME280;63555;49.920;17.868;2022-10-16T08:30:47;99123.09;;;25.65;71.76
69911;BME280;63555;49.920;17.868;2022-10-16T08:33:13;99122.31;;;25.65;71.79
69911;BME280;63555;49.920;17.868;2022-10-16T08:35:38;99126.03;;;25.55;72.22
69911;BME280;63555;49.920;17.868;2022-10-16T08:38:05;99119.81;;;25.99;70.80
69911;BME280;63555;49.920;17.868;2022-10-16T08:40:32;99127.97;;;26.47;68.69
69911;BME280;63555;49.920;17.868;2022-10-16T08:48:50;99133.06;;;25.42;71.19
69911;BME280;63555;49.920;17.868;2022-10-16T08:51:23;99139.25;;;25.20;72.04
69911;BME280;63555;49.920;17.868;2022-10-16T08:54:50;99145.22;;;25.17;71.13
69911;BME280;63555;49.920;17.868;2022-10-16T08:56:57;99143.16;;;25.37;70.90
69911;BME280;63555;49.920;17.868;2022-10-16T08:59:26;99143.22;;;25.45;70.90
69911;BME280;63555;49.920;17.868;2022-10-16T09:01:52;99135.47;;;25.89;68.88
69911;BME280;63555;49.920;17.868;2022-10-16T09:17:56;99145.59;;;28.64;57.93
69911;BME280;63555;49.920;17.868;2022-10-16T09:20:36;99144.47;;;28.27;58.38
69911;BME280;63555;49.920;17.868;2022-10-16T09:25:28;99139.38;;;28.26;57.04
69911;BME280;63555;49.920;17.868;2022-10-16T09:27:55;99135.91;;;28.17;56.84
69911;BME280;63555;49.920;17.868;2022-10-16T09:30:21;99144.06;;;28.08;56.92
69911;BME280;63555;49.920;17.868;2022-10-16T09:32:49;99159.56;;;27.47;57.82
69911;BME280;63555;49.920;17.868;2022-10-16T09:35:18;99160.50;;;26.99;59.20
69911;BME280;63555;49.920;17.868;2022-10-16T09:37:48;99168.03;;;26.80;59.97
69911;BME280;63555;49.920;17.868;2022-10-16T09:40:30;99180.53;;;26.59;60.18
69911;BME280;63555;49.920;17.868;2022-10-16T09:45:27;99187.91;;;25.82;62.59
69911;BME280;63555;49.920;17.868;2022-10-16T09:47:52;99186.31;;;25.45;63.35
69911;BME280;63555;49.920;17.868;2022-10-16T09:50:26;99193.22;;;25.02;64.59
69911;BME280;63555;49.920;17.868;2022-10-16T09:53:25;99192.00;;;24.67;65.85
69911;BME280;63555;49.920;17.868;2022-10-16T09:55:53;99188.72;;;24.42;67.01
69911;BME280;63555;49.920;17.868;2022-10-16T09:58:22;99199.16;;;24.30;67.61
69911;BME280;63555;49.920;17.868;2022-10-16T10:00:50;99190.63;;;24.09;67.99
69911;BME280;63555;49.920;17.868;2022-10-16T10:03:38;99192.25;;;23.91;69.19
69911;BME280;63555;49.920;17.868;2022-10-16T10:08:57;99194.19;;;23.35;70.73
69911;BME280;63555;49.920;17.868;2022-10-16T10:11:41;99194.09;;;23.21;71.81
69911;BME280;63555;49.920;17.868;2022-10-16T10:14:35;99194.25;;;23.30;72.82
69911;BME280;63555;49.920;17.868;2022-10-16T10:19:50;99182.69;;;23.85;71.36
69911;BME280;63555;49.920;17.868;2022-10-16T10:22:42;99173.03;;;24.17;70.79
69911;BME280;63555;49.920;17.868;2022-10-16T10:30:33;99190.50;;;24.88;68.96
69911;BME280;63555;49.920;17.868;2022-10-16T10:36:37;99196.97;;;24.87;68.66
69911;BME280;63555;49.920;17.868;2022-10-16T10:39:14;99194.28;;;24.87;68.34
69911;BME280;63555;49.920;17.868;2022-10-16T10:49:49;99190.81;;;24.45;68.66
69911;BME280;63555;49.920;17.868;2022-10-16T10:52:41;99190.34;;;24.24;68.70
69911;BME280;63555;49.920;17.868;2022-10-16T10:55:46;99191.16;;;23.92;69.58
69911;BME280;63555;49.920;17.868;2022-10-16T10:58:16;99207.78;;;23.62;70.30
69911;BME280;63555;49.920;17.868;2022-10-16T11:00:57;99205.00;;;23.30;71.18
69911;BME280;63555;49.920;17.868;2022-10-16T11:03:41;99213.09;;;23.06;71.88
69911;BME280;63555;49.920;17.868;2022-10-16T11:06:18;99212.63;;;22.80;72.53
69911;BME280;63555;49.920;17.868;2022-10-16T11:08:51;99204.88;;;22.73;73.08
69911;BME280;63555;49.920;17.868;2022-10-16T11:11:25;99204.03;;;22.78;73.80
69911;BME280;63555;49.920;17.868;2022-10-16T11:16:57;99195.47;;;22.76;74.19
69911;BME280;63555;49.920;17.868;2022-10-16T11:19:45;99200.00;;;22.80;74.07
69911;BME280;63555;49.920;17.868;2022-10-16T11:24:58;99198.31;;;22.60;75.57
69911;BME280;63555;49.920;17.868;2022-10-16T11:27:41;99201.06;;;22.55;75.91
69911;BME280;63555;49.920;17.868;2022-10-16T11:30:46;99210.28;;;22.44;76.34
69911;BME280;63555;49.920;17.868;2022-10-16T11:36:23;99201.78;;;22.37;76.95
69911;BME280;63555;49.920;17.868;2022-10-16T11:39:27;99205.19;;;22.43;76.84
69911;BME280;63555;49.920;17.868;2022-10-16T11:42:03;99196.78;;;22.54;77.63
69911;BME280;63555;49.920;17.868;2022-10-16T11:44:48;99193.97;;;22.65;77.18
69911;BME280;63555;49.920;17.868;2022-10-16T11:47:27;99195.53;;;22.71;76.98
69911;BME280;63555;49.920;17.868;2022-10-16T11:50:14;99188.28;;;22.71;77.89
69911;BME280;63555;49.920;17.868;2022-10-16T11:53:13;99186.88;;;22.79;77.49
69911;BME280;63555;49.920;17.868;2022-10-16T11:55:40;99193.63;;;22.71;78.15
69911;BME280;63555;49.920;17.868;2022-10-16T11:58:52;99195.91;;;22.59;78.47
69911;BME280;63555;49.920;17.868;2022-10-16T12:03:35;99189.69;;;22.40;79.53
69911;BME280;63555;49.920;17.868;2022-10-16T12:08:44;99193.25;;;22.06;81.21
69911;BME280;63555;49.920;17.868;2022-10-16T12:17:02;99214.09;;;21.70;83.40
69911;BME280;63555;49.920;17.868;2022-10-16T12:19:31;99214.13;;;21.65;83.44
69911;BME280;63555;49.920;17.868;2022-10-16T12:22:01;99223.34;;;21.54;84.36
69911;BME280;63555;49.920;17.868;2022-10-16T12:24:39;99219.94;;;21.43;85.53
69911;BME280;63555;49.920;17.868;2022-10-16T12:27:29;99221.88;;;21.27;86.14
69911;BME280;63555;49.920;17.868;2022-10-16T12:30:03;99217.34;;;21.23;86.68
69911;BME280;63555;49.920;17.868;2022-10-16T12:32:36;99206.94;;;21.21;87.88
69911;BME280;63555;49.920;17.868;2022-10-16T12:35:05;99208.00;;;21.15;88.73
69911;BME280;63555;49.920;17.868;2022-10-16T12:37:34;99215.19;;;21.20;88.78
69911;BME280;63555;49.920;17.868;2022-10-16T12:40:13;99212.53;;;21.25;89.34
69911;BME280;63555;49.920;17.868;2022-10-16T12:42:39;99215.47;;;21.23;89.28
69911;BME280;63555;49.920;17.868;2022-10-16T12:45:25;99217.34;;;21.28;88.97
69911;BME280;63555;49.920;17.868;2022-10-16T12:47:52;99209.03;;;21.29;88.98
69911;BME280;63555;49.920;17.868;2022-10-16T12:50:31;99215.41;;;21.39;89.17
69911;BME280;63555;49.920;17.868;2022-10-16T12:52:58;99209.50;;;21.42;88.49
69911;BME280;63555;49.920;17.868;2022-10-16T12:55:24;99217.28;;;21.38;88.53
69911;BME280;63555;49.920;17.868;2022-10-16T13:00:57;99219.47;;;21.26;88.96
69911;BME280;63555;49.920;17.868;2022-10-16T13:03:51;99203.47;;;21.11;88.84
69911;BME280;63555;49.920;17.868;2022-10-16T13:06:25;99212.09;;;20.92;89.51
69911;BME280;63555;49.920;17.868;2022-10-16T13:09:13;99198.53;;;20.79;90.09
69911;BME280;63555;49.920;17.868;2022-10-16T13:12:14;99198.03;;;20.66;91.02
69911;BME280;63555;49.920;17.868;2022-10-16T13:20:12;99193.31;;;20.38;93.77
69911;BME280;63555;49.920;17.868;2022-10-16T13:27:52;99212.56;;;19.99;96.85
69911;BME280;63555;49.920;17.868;2022-10-16T13:30:22;99206.69;;;19.92;97.31
69911;BME280;63555;49.920;17.868;2022-10-16T13:32:58;99192.25;;;19.88;97.99
69911;BME280;63555;49.920;17.868;2022-10-16T13:35:27;99200.00;;;19.85;98.24
69911;BME280;63555;49.920;17.868;2022-10-16T13:38:16;99200.53;;;19.87;98.63
69911;BME280;63555;49.920;17.868;2022-10-16T13:43:43;99213.09;;;19.86;99.39
69911;BME280;63555;49.920;17.868;2022-10-16T13:46:14;99214.41;;;19.84;99.38
69911;BME280;63555;49.920;17.868;2022-10-16T13:48:40;99220.84;;;19.88;99.63
69911;BME280;63555;49.920;17.868;2022-10-16T13:51:12;99231.50;;;19.93;100.00
69911;BME280;63555;49.920;17.868;2022-10-16T13:53:38;99236.31;;;20.01;99.58
69911;BME280;63555;49.920;17.868;2022-10-16T13:56:06;99241.63;;;20.16;99.94
69911;BME280;63555;49.920;17.868;2022-10-16T13:58:32;99244.56;;;20.30;99.37
69911;BME280;63555;49.920;17.868;2022-10-16T14:01:03;99243.00;;;20.39;98.93
69911;BME280;63555;49.920;17.868;2022-10-16T14:03:32;99240.31;;;20.39;99.45
69911;BME280;63555;49.920;17.868;2022-10-16T14:06:02;99247.78;;;20.37;99.80
69911;BME280;63555;49.920;17.868;2022-10-16T14:08:29;99245.09;;;20.37;100.00
69911;BME280;63555;49.920;17.868;2022-10-16T14:11:00;99241.66;;;20.42;100.00
69911;BME280;63555;49.920;17.868;2022-10-16T14:13:32;99244.06;;;20.48;100.00
69911;BME280;63555;49.920;17.868;2022-10-16T14:16:02;99248.31;;;20.54;100.00
69911;BME280;63555;49.920;17.868;2022-10-16T14:18:30;99245.09;;;20.57;100.00
69911;BME280;63555;49.920;17.868;2022-10-16T14:21:03;99249.66;;;20.57;100.00
69911;BME280;63555;49.920;17.868;2022-10-16T14:23:32;99251.28;;;20.48;100.00
69911;BME280;63555;49.920;17.868;2022-10-16T14:28:38;99259.28;;;20.32;100.00
69911;BME280;63555;49.920;17.868;2022-10-16T14:31:23;99258.47;;;20.22;100.00
69911;BME280;63555;49.920;17.868;2022-10-16T14:33:49;99256.09;;;20.05;100.00
69911;BME280;63555;49.920;17.868;2022-10-16T14:36:16;99269.69;;;19.88;100.00
69911;BME280;63555;49.920;17.868;2022-10-16T14:38:57;99268.31;;;19.71;100.00